Time;durP1;ratioP1;P1;durP2;ratioP2;P2;SDS_P1;SDS_P2;PMS_P1;PMS_P2;Temp;Humidity;BMP_temperature;BMP_pressure;BME280_temperature;BME280_humidity;BME280_pressure;Samples;Min_cycle;Max_cycle;Signal;HPM_P1;HPM_P2
2022/08/26 00:02:23;;;;;;;17.70;8.25;;;19.30;99.90;;;;;;9544870;31;20040;-80
2022/08/26 00:07:24;;;;;;;15.95;7.90;;;19.40;99.90;;;;;;9538501;31;20039;-83
2022/08/26 00:12:25;;;;;;;14.32;7.70;;;19.50;99.90;;;;;;9546339;31;20055;-81
2022/08/26 00:17:26;;;;;;;19.92;8.35;;;19.50;99.90;;;;;;9549456;31;20044;-80
2022/08/26 00:22:27;;;;;;;14.77;7.55;;;19.50;99.90;;;;;;9546864;31;20047;-80
2022/08/26 00:27:27;;;;;;;15.20;7.43;;;19.40;99.90;;;;;;9560940;30;20044;-82
2022/08/26 00:32:28;;;;;;;24.55;8.55;;;19.40;99.90;;;;;;9556936;31;20478;-81
2022/08/26 00:37:29;;;;;;;16.30;8.20;;;19.30;99.90;;;;;;9555149;31;20043;-81
2022/08/26 00:42:30;;;;;;;16.25;8.10;;;19.30;99.90;;;;;;9540888;31;20036;-81
2022/08/26 00:47:38;;;;;;;17.75;8.10;;;19.30;99.90;;;;;;9545260;31;20078;-81
2022/08/26 00:52:40;;;;;;;18.73;7.82;;;19.30;99.90;;;;;;9550826;31;20191;-80
2022/08/26 00:57:41;;;;;;;21.77;7.43;;;19.30;99.90;;;;;;9550495;31;20074;-81
2022/08/26 01:02:42;;;;;;;12.90;7.57;;;19.30;99.90;;;;;;9553480;31;20047;-81
2022/08/26 01:07:43;;;;;;;23.77;9.15;;;19.30;99.90;;;;;;9551666;31;20110;-81
2022/08/26 01:12:47;;;;;;;15.73;8.38;;;19.30;99.90;;;;;;9550707;31;20055;-82
2022/08/26 01:17:48;;;;;;;19.10;8.88;;;19.30;99.90;;;;;;9554180;30;20048;-81
2022/08/26 01:23:05;;;;;;;17.08;7.78;;;19.20;99.90;;;;;;9549346;31;20043;-80
2022/08/26 01:28:20;;;;;;;16.88;7.82;;;19.10;99.90;;;;;;9559264;31;20055;-80
2022/08/26 01:33:53;;;;;;;19.20;8.77;;;19.10;99.90;;;;;;9558654;31;20047;-80
2022/08/26 01:38:54;;;;;;;19.00;8.18;;;18.90;99.90;;;;;;9544050;31;20147;-80
2022/08/26 01:43:56;;;;;;;19.25;8.18;;;18.80;99.90;;;;;;9543969;31;20039;-81
2022/08/26 01:49:00;;;;;;;20.65;9.00;;;18.70;99.90;;;;;;9546149;31;20059;-80
2022/08/26 01:54:02;;;;;;;17.03;9.00;;;18.50;99.90;;;;;;9544448;31;20036;-82
2022/08/26 01:59:07;;;;;;;21.02;8.93;;;18.40;99.90;;;;;;9554248;31;20046;-80
2022/08/26 02:04:19;;;;;;;20.73;8.03;;;18.40;99.90;;;;;;9562585;31;20039;-82
2022/08/26 02:09:21;;;;;;;21.10;9.23;;;18.30;99.90;;;;;;9559519;31;20047;-82
2022/08/26 02:14:27;;;;;;;15.95;8.20;;;18.20;99.90;;;;;;9557523;31;20431;-80
2022/08/26 02:19:35;;;;;;;18.80;8.38;;;18.20;99.90;;;;;;9539241;31;20052;-82
2022/08/26 02:24:48;;;;;;;16.38;8.60;;;18.20;99.90;;;;;;9543828;31;20035;-80
2022/08/26 02:29:55;;;;;;;12.38;8.25;;;18.20;99.90;;;;;;9543485;31;20048;-80
2022/08/26 02:34:56;;;;;;;13.88;7.75;;;18.10;99.90;;;;;;9533549;31;20561;-80
2022/08/26 02:39:57;;;;;;;17.95;7.60;;;18.10;99.90;;;;;;9551016;31;20048;-81
2022/08/26 02:44:57;;;;;;;17.27;7.78;;;18.10;99.90;;;;;;9551830;31;20043;-82
2022/08/26 02:49:58;;;;;;;14.30;7.70;;;18.10;99.90;;;;;;9561160;31;20051;-82
2022/08/26 02:54:58;;;;;;;16.02;7.85;;;18.10;99.90;;;;;;9550935;31;20170;-82
2022/08/26 03:00:00;;;;;;;14.00;7.57;;;18.10;99.90;;;;;;9559129;31;20043;-79
2022/08/26 03:05:01;;;;;;;12.80;7.60;;;18.00;99.90;;;;;;9548481;31;20067;-81
2022/08/26 03:10:03;;;;;;;12.23;7.13;;;18.00;99.90;;;;;;9545598;31;20099;-81
2022/08/26 03:15:06;;;;;;;14.07;7.35;;;17.90;99.90;;;;;;9557085;30;20032;-79
2022/08/26 03:20:09;;;;;;;14.93;7.22;;;17.80;99.90;;;;;;9559751;31;20081;-81
2022/08/26 03:25:13;;;;;;;11.05;6.70;;;17.80;99.90;;;;;;9571106;30;20505;-81
2022/08/26 03:35:34;;;;;;;11.70;7.10;;;17.70;99.90;;;;;;9540417;31;20131;-81
2022/08/26 03:40:36;;;;;;;21.50;7.22;;;17.60;99.90;;;;;;9543600;31;20489;-82
2022/08/26 03:45:38;;;;;;;13.07;6.82;;;17.60;99.90;;;;;;9538575;31;20043;-80
2022/08/26 03:50:39;;;;;;;11.73;6.53;;;17.50;99.90;;;;;;9549848;31;20501;-82
2022/08/26 03:55:40;;;;;;;11.73;6.57;;;17.60;99.90;;;;;;9555543;31;20099;-80
2022/08/26 04:00:41;;;;;;;17.30;7.00;;;17.80;99.90;;;;;;9542770;30;20122;-81
2022/08/26 04:05:41;;;;;;;13.18;7.05;;;17.80;99.90;;;;;;9549969;31;20540;-80
2022/08/26 04:10:42;;;;;;;15.45;6.50;;;17.80;99.90;;;;;;9545047;31;20411;-82
2022/08/26 04:15:43;;;;;;;13.38;6.35;;;17.90;99.90;;;;;;9536736;31;20039;-82
2022/08/26 04:20:43;;;;;;;18.02;7.10;;;17.90;99.90;;;;;;9545804;31;20059;-81
2022/08/26 04:25:44;;;;;;;11.98;6.60;;;17.90;99.90;;;;;;9525189;31;20051;-88
2022/08/26 04:30:45;;;;;;;16.33;6.43;;;18.00;99.90;;;;;;9517232;31;20056;-84
2022/08/26 04:35:45;;;;;;;11.55;6.10;;;18.00;99.90;;;;;;9525051;31;20106;-85
2022/08/26 04:40:46;;;;;;;12.90;6.60;;;18.00;99.90;;;;;;9535049;31;20102;-86
2022/08/26 04:45:47;;;;;;;13.50;5.93;;;18.00;99.90;;;;;;9521167;31;20042;-86
2022/08/26 04:50:47;;;;;;;10.65;6.50;;;17.90;99.90;;;;;;9522996;31;20134;-86
2022/08/26 04:55:48;;;;;;;10.48;5.57;;;17.90;99.90;;;;;;9522017;31;20134;-86
2022/08/26 05:00:51;;;;;;;15.30;5.95;;;17.90;99.90;;;;;;9528135;31;20410;-86
2022/08/26 05:05:52;;;;;;;11.43;6.00;;;18.00;99.90;;;;;;9523306;31;20099;-86
2022/08/26 05:10:54;;;;;;;10.38;5.47;;;18.00;99.90;;;;;;9558096;31;20122;-86
2022/08/26 05:15:55;;;;;;;10.13;5.18;;;18.10;99.90;;;;;;9561934;30;20758;-86
2022/08/26 05:20:56;;;;;;;16.00;5.45;;;18.20;99.90;;;;;;9562243;30;20035;-86
2022/08/26 05:25:58;;;;;;;9.82;5.07;;;18.30;99.90;;;;;;9557107;31;20075;-86
2022/08/26 05:30:59;;;;;;;6.97;5.20;;;18.60;99.90;;;;;;9545173;31;20063;-86
2022/08/26 05:36:06;;;;;;;13.32;6.10;;;18.80;99.90;;;;;;9564012;31;20046;-87
2022/08/26 05:41:34;;;;;;;9.45;5.05;;;19.00;99.90;;;;;;9573885;31;20046;-85
2022/08/26 05:46:37;;;;;;;10.05;5.32;;;19.20;99.90;;;;;;9573163;31;20079;-86
2022/08/26 05:51:38;;;;;;;8.63;4.78;;;19.40;99.90;;;;;;9565727;31;20051;-85
2022/08/26 05:56:39;;;;;;;17.60;8.25;;;19.60;99.90;;;;;;9560368;31;20506;-86
2022/08/26 06:01:41;;;;;;;19.67;9.75;;;19.70;99.90;;;;;;9576945;30;20040;-85
2022/08/26 06:06:41;;;;;;;17.27;10.15;;;19.90;99.90;;;;;;9572075;31;20035;-86
2022/08/26 06:11:42;;;;;;;20.20;12.50;;;20.10;99.90;;;;;;9566593;31;20385;-86
2022/08/26 06:16:43;;;;;;;29.63;18.52;;;20.30;99.90;;;;;;9569666;30;20454;-85
2022/08/26 06:21:47;;;;;;;36.65;24.05;;;20.50;99.90;;;;;;9573231;31;20043;-85
2022/08/26 06:26:51;;;;;;;39.72;23.50;;;20.70;99.90;;;;;;9566230;30;20051;-86
2022/08/26 06:31:53;;;;;;;30.42;19.10;;;20.90;99.90;;;;;;9563383;31;20047;-87
2022/08/26 06:36:57;;;;;;;31.00;17.35;;;21.10;99.90;;;;;;9567436;30;20043;-86
2022/08/26 06:41:59;;;;;;;25.17;12.98;;;21.30;99.90;;;;;;9571398;31;20182;-86
2022/08/26 06:46:59;;;;;;;16.98;9.07;;;21.50;99.90;;;;;;9560027;31;20032;-85
2022/08/26 06:52:00;;;;;;;11.95;5.47;;;21.80;99.90;;;;;;9554833;31;20058;-85
2022/08/26 06:57:01;;;;;;;11.77;5.03;;;22.10;99.90;;;;;;9548310;31;20063;-85
2022/08/26 07:02:02;;;;;;;7.55;4.53;;;22.30;99.20;;;;;;9562638;31;20130;-87
2022/08/26 07:07:02;;;;;;;10.90;4.30;;;22.60;99.60;;;;;;9569709;31;20047;-86
2022/08/26 07:12:04;;;;;;;11.73;4.78;;;22.80;97.30;;;;;;9563094;31;20055;-86
2022/08/26 07:17:06;;;;;;;11.00;4.82;;;23.10;96.10;;;;;;9566308;30;20040;-85
2022/08/26 07:22:06;;;;;;;11.60;4.50;;;23.40;96.00;;;;;;9570077;31;20036;-87
2022/08/26 07:27:10;;;;;;;9.93;4.78;;;23.70;93.90;;;;;;9572885;31;20035;-86
2022/08/26 07:32:13;;;;;;;8.07;4.22;;;24.00;93.40;;;;;;9545767;31;20062;-86
2022/08/26 07:37:14;;;;;;;7.38;4.20;;;24.20;92.10;;;;;;9549760;31;20035;-85
2022/08/26 07:42:16;;;;;;;9.65;4.70;;;24.50;93.90;;;;;;9568295;31;20421;-86
2022/08/26 07:47:17;;;;;;;12.93;4.40;;;24.80;92.20;;;;;;9572023;31;20517;-87
2022/08/26 07:52:18;;;;;;;15.00;5.07;;;25.10;92.00;;;;;;9564706;30;20047;-86
2022/08/26 07:57:18;;;;;;;17.35;4.43;;;25.40;85.10;;;;;;9555677;30;20056;-87
2022/08/26 08:02:19;;;;;;;10.32;4.55;;;25.70;87.60;;;;;;9565321;31;20051;-87
2022/08/26 08:07:20;;;;;;;16.42;5.10;;;25.90;89.40;;;;;;9569817;31;20061;-87
2022/08/26 08:12:21;;;;;;;13.32;4.85;;;26.10;84.00;;;;;;9568861;31;20039;-87
2022/08/26 08:17:22;;;;;;;13.82;4.80;;;26.40;84.70;;;;;;9539255;30;20502;-87
2022/08/26 08:22:23;;;;;;;16.38;5.28;;;26.80;83.50;;;;;;9563902;31;20036;-87
2022/08/26 08:27:25;;;;;;;9.95;4.03;;;27.00;81.40;;;;;;9553374;31;20062;-87
2022/08/26 08:32:28;;;;;;;10.45;4.05;;;27.30;81.30;;;;;;9572026;31;20387;-88
2022/08/26 08:37:28;;;;;;;10.07;4.22;;;27.50;73.90;;;;;;9540262;31;20043;-87
2022/08/26 08:42:49;;;;;;;8.55;4.50;;;27.70;74.50;;;;;;9562006;31;20036;-86
2022/08/26 08:47:54;;;;;;;8.02;3.83;;;28.00;69.20;;;;;;9554226;31;20103;-87
2022/08/26 08:53:30;;;;;;;10.57;3.80;;;28.20;73.50;;;;;;9555572;31;20039;-85
2022/08/26 08:58:58;;;;;;;15.05;3.72;;;28.50;68.90;;;;;;9558394;31;20060;-86
2022/08/26 09:04:43;;;;;;;10.90;3.58;;;28.70;66.20;;;;;;9570130;31;20043;-86
2022/08/26 09:09:47;;;;;;;;;;;28.90;68.80;;;;;;9543693;31;20062;-86
2022/08/26 09:14:49;;;;;;;7.10;3.40;;;29.00;66.00;;;;;;9567448;30;20574;-87
2022/08/26 09:20:01;;;;;;;12.95;3.53;;;29.20;68.10;;;;;;9573062;30;20433;-88
2022/08/26 09:25:06;;;;;;;11.35;3.67;;;29.50;67.40;;;;;;9576309;31;20122;-85
2022/08/26 09:30:11;;;;;;;10.05;3.33;;;29.70;66.60;;;;;;9580389;31;20071;-85
2022/08/26 09:35:39;;;;;;;9.32;3.80;;;29.60;63.70;;;;;;9579760;31;20039;-86
2022/08/26 09:40:40;;;;;;;10.35;3.45;;;29.70;63.40;;;;;;9577134;30;20057;-85
2022/08/26 09:45:44;;;;;;;9.48;3.80;;;29.60;65.20;;;;;;9579340;31;20647;-87
2022/08/26 09:50:55;;;;;;;10.55;3.25;;;29.80;67.00;;;;;;9580697;31;20043;-86
2022/08/26 09:56:20;;;;;;;8.73;3.00;;;29.90;62.30;;;;;;9565452;30;20063;-86
2022/08/26 10:01:30;;;;;;;9.65;3.20;;;30.20;61.10;;;;;;9580858;31;20123;-87
2022/08/26 10:06:37;;;;;;;8.18;2.78;;;30.00;61.20;;;;;;9580126;31;20153;-86
2022/08/26 10:11:49;;;;;;;7.45;3.45;;;30.00;61.20;;;;;;9580192;31;20054;-87
2022/08/26 10:16:59;;;;;;;7.30;2.97;;;30.30;60.80;;;;;;9580186;30;20372;-87
2022/08/26 10:22:26;;;;;;;8.43;3.10;;;30.50;61.20;;;;;;9580125;31;20042;-85
2022/08/26 10:27:57;;;;;;;8.07;3.00;;;30.70;56.70;;;;;;9579752;31;20137;-85
2022/08/26 10:33:05;;;;;;;8.23;3.15;;;30.50;55.70;;;;;;9579850;31;20052;-86
2022/08/26 10:38:15;;;;;;;9.50;2.90;;;30.70;56.40;;;;;;9563804;31;20042;-86
2022/08/26 10:43:26;;;;;;;9.70;3.28;;;30.80;58.00;;;;;;9579525;31;20043;-88
2022/08/26 10:48:59;;;;;;;9.20;3.10;;;30.90;57.90;;;;;;9551273;31;20051;-86
2022/08/26 10:54:16;;;;;;;18.83;4.00;;;31.20;54.00;;;;;;9548816;31;20078;-86
2022/08/26 10:59:16;;;;;;;9.90;2.72;;;31.00;53.90;;;;;;9560057;31;20035;-86
2022/08/26 11:04:49;;;;;;;6.65;2.90;;;30.90;54.00;;;;;;9565044;30;20572;-86
2022/08/26 11:09:50;;;;;;;11.23;2.90;;;30.90;54.30;;;;;;9544813;31;20043;-87
2022/08/26 11:14:51;;;;;;;17.35;2.97;;;31.00;52.30;;;;;;9561912;31;20035;-85
2022/08/26 11:19:51;;;;;;;10.45;2.72;;;31.20;54.80;;;;;;9566233;31;20031;-87
2022/08/26 11:24:52;;;;;;;9.70;2.83;;;31.30;53.70;;;;;;9558646;30;20032;-87
2022/08/26 11:30:14;;;;;;;9.20;2.90;;;31.40;51.90;;;;;;9524428;31;20073;-87
2022/08/26 11:35:39;;;;;;;8.80;3.20;;;31.50;54.40;;;;;;9527415;31;20127;-87
2022/08/26 11:40:40;;;;;;;7.40;2.55;;;31.60;51.50;;;;;;9527212;31;20047;-87
2022/08/26 11:45:43;;;;;;;6.25;2.22;;;31.70;57.30;;;;;;9528528;31;20044;-87
2022/08/26 11:50:59;;;;;;;9.00;2.80;;;31.80;56.30;;;;;;9524101;31;20052;-86
2022/08/26 11:56:15;;;;;;;7.60;2.75;;;31.80;51.70;;;;;;9533210;31;20063;-88
2022/08/26 12:01:28;;;;;;;8.40;2.90;;;31.70;52.40;;;;;;9550035;31;20040;-87
2022/08/26 12:06:51;;;;;;;9.70;3.08;;;31.70;54.20;;;;;;9520726;31;20083;-86
2022/08/26 12:17:53;;;;;;;9.68;2.55;;;32.00;55.50;;;;;;9560847;31;20043;-86
2022/08/26 12:22:55;;;;;;;8.73;2.80;;;32.00;51.30;;;;;;9532003;31;20087;-85
2022/08/26 12:28:04;;;;;;;8.48;3.17;;;31.70;50.20;;;;;;9534516;31;20046;-86
2022/08/26 12:33:11;;;;;;;7.82;2.50;;;31.60;53.00;;;;;;9547729;31;20481;-85
2022/08/26 12:38:11;;;;;;;8.65;3.33;;;31.60;51.70;;;;;;9532256;31;20052;-87
2022/08/26 12:43:33;;;;;;;9.88;3.05;;;31.50;51.70;;;;;;9538272;30;20091;-85
2022/08/26 12:48:37;;;;;;;7.35;2.42;;;31.50;50.30;;;;;;9541622;31;20608;-85
2022/08/26 12:53:42;;;;;;;10.35;2.80;;;31.50;51.40;;;;;;9544288;31;20036;-88
2022/08/26 12:58:42;;;;;;;6.78;2.65;;;31.50;53.30;;;;;;9544384;31;20056;-87
2022/08/26 13:03:44;;;;;;;8.32;2.97;;;31.70;52.50;;;;;;9561727;31;20040;-87
2022/08/26 13:09:23;;;;;;;9.25;2.60;;;31.80;49.90;;;;;;9527262;31;20395;-85
2022/08/26 13:14:24;;;;;;;7.57;2.72;;;31.70;51.70;;;;;;9551682;31;20051;-85
2022/08/26 13:19:25;;;;;;;10.57;2.60;;;31.40;50.30;;;;;;9548533;30;20051;-85
2022/08/26 13:24:35;;;;;;;6.60;2.78;;;31.30;48.80;;;;;;9552239;31;20039;-86
2022/08/26 13:29:46;;;;;;;5.65;2.58;;;31.20;51.50;;;;;;9548289;30;20063;-86
2022/08/26 13:35:19;;;;;;;6.70;3.08;;;31.40;52.60;;;;;;9524815;31;20051;-85
2022/08/26 13:41:15;;;;;;;11.73;3.47;;;31.40;51.80;;;;;;9561292;31;20043;-88
2022/08/26 13:46:16;;;;;;;11.43;4.20;;;31.30;51.90;;;;;;9536807;31;20055;-88
2022/08/26 13:51:19;;;;;;;7.93;3.10;;;31.20;51.30;;;;;;9543671;31;20390;-87
2022/08/26 13:57:10;;;;;;;11.30;3.20;;;30.90;51.40;;;;;;9537604;31;20513;-86
2022/08/26 14:02:11;;;;;;;11.15;3.38;;;30.70;52.50;;;;;;9535184;31;20511;-86
2022/08/26 14:07:11;;;;;;;7.88;3.45;;;30.70;54.80;;;;;;9553074;31;20057;-87
2022/08/26 14:12:12;;;;;;;8.73;3.15;;;30.60;53.60;;;;;;9552909;31;20059;-87
2022/08/26 14:17:19;;;;;;;8.85;3.17;;;30.30;53.10;;;;;;9555770;30;20051;-86
2022/08/26 14:22:21;;;;;;;8.25;3.38;;;30.30;54.20;;;;;;9527770;31;20478;-87
2022/08/26 15:23:40;;;;;;;9.68;3.38;;;29.00;56.40;;;;;;9527407;31;20063;-88
2022/08/26 15:28:41;;;;;;;10.80;3.28;;;28.90;57.90;;;;;;9532520;31;20044;-86
2022/08/26 15:33:41;;;;;;;13.88;3.65;;;28.80;57.70;;;;;;9531690;31;20452;-86
2022/08/26 15:38:42;;;;;;;6.25;3.38;;;28.70;57.40;;;;;;9526454;31;20126;-87
2022/08/26 15:43:44;;;;;;;7.30;3.33;;;28.60;57.80;;;;;;9526237;31;20044;-85
2022/08/26 15:48:46;;;;;;;7.93;5.07;;;28.50;58.50;;;;;;9531364;31;20047;-86
2022/08/26 15:53:47;;;;;;;19.85;9.27;;;28.40;59.00;;;;;;9532390;31;20073;-87
2022/08/26 15:58:47;;;;;;;6.78;4.28;;;28.30;61.30;;;;;;9537788;31;20711;-86
2022/08/26 16:03:48;;;;;;;13.57;3.75;;;28.10;59.30;;;;;;9540952;31;20123;-86
2022/08/26 16:08:49;;;;;;;8.20;4.15;;;28.10;61.30;;;;;;9547500;31;20043;-87
2022/08/26 16:13:50;;;;;;;8.52;4.15;;;27.80;63.10;;;;;;9544582;31;20521;-88
2022/08/26 16:18:51;;;;;;;7.57;3.72;;;27.70;64.00;;;;;;9548823;31;20902;-87
2022/08/26 16:23:51;;;;;;;6.43;3.58;;;27.40;60.80;;;;;;9533447;31;20071;-88
2022/08/26 16:28:52;;;;;;;36.90;20.77;;;27.20;65.30;;;;;;9534328;31;20033;-89
2022/08/26 16:33:53;;;;;;;180.65;134.65;;;27.00;65.80;;;;;;9543827;31;20410;-86
2022/08/26 16:38:55;;;;;;;12.13;6.95;;;26.70;67.10;;;;;;9537416;31;20067;-88
2022/08/26 16:43:56;;;;;;;7.78;4.68;;;26.40;69.20;;;;;;9541136;31;20040;-88
2022/08/26 16:48:57;;;;;;;7.65;4.22;;;26.00;68.20;;;;;;9542408;31;20047;-88
2022/08/26 16:54:01;;;;;;;8.52;3.70;;;25.80;70.90;;;;;;9539158;31;20051;-88
2022/08/26 16:59:06;;;;;;;10.77;4.00;;;25.40;72.80;;;;;;9546354;31;20031;-87
2022/08/26 17:04:07;;;;;;;8.88;4.50;;;25.20;72.20;;;;;;9531307;31;20704;-88
2022/08/26 17:09:07;;;;;;;5.47;4.20;;;25.00;74.40;;;;;;9543894;31;20043;-88
2022/08/26 17:14:08;;;;;;;8.73;4.50;;;24.70;75.10;;;;;;9526974;31;20028;-87
2022/08/26 17:19:09;;;;;;;9.18;5.75;;;24.60;74.70;;;;;;9541481;31;20035;-87
2022/08/26 17:24:10;;;;;;;11.07;4.70;;;24.40;75.30;;;;;;9546747;31;20066;-86
2022/08/26 17:29:11;;;;;;;11.18;5.20;;;24.10;76.30;;;;;;9546240;31;20046;-87
2022/08/26 17:34:12;;;;;;;11.25;5.40;;;23.90;75.70;;;;;;9554150;30;20047;-87
2022/08/26 17:39:12;;;;;;;9.57;4.88;;;23.80;74.60;;;;;;9549067;31;20390;-87
2022/08/26 17:44:13;;;;;;;8.98;5.05;;;23.70;76.00;;;;;;9544369;31;20170;-87
2022/08/26 17:49:14;;;;;;;9.15;5.28;;;23.60;76.90;;;;;;9554156;31;20051;-86
2022/08/26 17:54:15;;;;;;;14.32;5.53;;;23.40;77.50;;;;;;9547519;31;20044;-86
2022/08/26 17:59:16;;;;;;;9.10;5.53;;;23.00;77.90;;;;;;9544760;31;20498;-87
2022/08/26 18:04:16;;;;;;;8.00;5.57;;;22.80;79.30;;;;;;9544882;31;20035;-87
2022/08/26 18:09:17;;;;;;;13.35;6.22;;;22.60;80.60;;;;;;9536428;31;20055;-86
2022/08/26 18:14:18;;;;;;;9.98;5.43;;;22.40;80.60;;;;;;9555669;31;20043;-85
2022/08/26 18:19:18;;;;;;;12.93;5.05;;;22.50;80.50;;;;;;9551431;31;20036;-86
2022/08/26 18:24:19;;;;;;;7.65;5.50;;;22.60;78.30;;;;;;9539540;31;20129;-85
2022/08/26 18:29:20;;;;;;;12.50;5.43;;;22.60;79.50;;;;;;9549548;30;20684;-85
2022/08/26 18:34:21;;;;;;;7.78;5.30;;;22.50;79.10;;;;;;9528664;31;20040;-86
2022/08/26 18:39:21;;;;;;;11.35;5.28;;;22.30;80.50;;;;;;9534464;31;20055;-87
2022/08/26 18:44:22;;;;;;;11.55;5.95;;;22.20;79.90;;;;;;9559131;31;20044;-88
2022/08/26 18:49:23;;;;;;;15.05;6.35;;;22.10;79.20;;;;;;9531595;31;20402;-85
2022/08/26 18:54:24;;;;;;;10.63;5.78;;;22.00;80.30;;;;;;9546173;31;20569;-87
2022/08/26 18:59:24;;;;;;;12.90;6.28;;;22.00;79.40;;;;;;9550675;31;20040;-84
2022/08/26 19:04:25;;;;;;;11.32;6.40;;;22.10;80.10;;;;;;9555085;31;20101;-88
2022/08/26 19:09:26;;;;;;;12.43;6.80;;;22.00;80.10;;;;;;9543900;31;20071;-83
2022/08/26 19:14:27;;;;;;;11.57;6.90;;;22.00;78.40;;;;;;9545604;31;20115;-85
2022/08/26 19:19:28;;;;;;;12.70;6.20;;;22.10;78.60;;;;;;9528589;31;20032;-87
2022/08/26 19:24:30;;;;;;;13.20;6.18;;;22.10;78.60;;;;;;9544258;31;20503;-87
2022/08/26 19:29:33;;;;;;;13.63;6.07;;;22.10;77.10;;;;;;9545825;31;20130;-87
2022/08/26 19:34:35;;;;;;;10.68;7.18;;;22.00;79.10;;;;;;9543325;31;20486;-86
2022/08/26 19:39:36;;;;;;;13.38;6.38;;;21.80;79.40;;;;;;9548733;31;20036;-87
2022/08/26 19:49:56;;;;;;;19.20;7.18;;;21.80;78.00;;;;;;9540693;31;20060;-87
2022/08/26 19:54:57;;;;;;;10.85;6.63;;;21.80;76.50;;;;;;9545095;31;20055;-86
2022/08/26 19:59:59;;;;;;;14.50;7.10;;;21.80;78.00;;;;;;9545797;31;20067;-85
2022/08/26 20:05:00;;;;;;;10.27;5.82;;;21.70;77.20;;;;;;9543651;31;20031;-85
2022/08/26 20:10:01;;;;;;;15.85;7.72;;;21.70;78.60;;;;;;9543055;31;20055;-82
2022/08/26 20:15:03;;;;;;;14.57;6.95;;;21.60;77.60;;;;;;9551995;31;20522;-84
2022/08/26 20:25:25;;;;;;;18.38;7.22;;;21.40;79.50;;;;;;9538322;31;20060;-83
2022/08/26 20:30:26;;;;;;;18.55;8.45;;;21.50;77.90;;;;;;9548275;31;20052;-84
2022/08/26 20:35:26;;;;;;;17.17;7.85;;;21.60;77.60;;;;;;9548527;30;20095;-83
2022/08/26 20:40:28;;;;;;;14.63;7.22;;;21.70;76.00;;;;;;9545464;31;20046;-85
2022/08/26 20:45:28;;;;;;;11.88;6.82;;;21.70;78.00;;;;;;9564174;31;20035;-86
2022/08/26 20:50:31;;;;;;;14.18;6.95;;;21.50;79.30;;;;;;9544459;31;20119;-83
2022/08/26 20:55:32;;;;;;;14.05;6.50;;;21.40;77.40;;;;;;9542276;31;20043;-84
2022/08/26 21:00:33;;;;;;;15.13;7.05;;;21.50;76.60;;;;;;9539753;31;20043;-84
2022/08/26 21:05:34;;;;;;;14.35;6.47;;;21.50;76.10;;;;;;9533661;31;20047;-86
2022/08/26 21:10:35;;;;;;;13.57;6.72;;;21.40;77.40;;;;;;9546917;31;20048;-83
2022/08/26 21:15:36;;;;;;;12.20;7.03;;;21.20;79.00;;;;;;9558247;30;20533;-82
2022/08/26 21:20:36;;;;;;;15.82;7.30;;;21.10;80.00;;;;;;9568772;31;20493;-82
2022/08/26 21:25:37;;;;;;;12.70;6.72;;;20.80;79.90;;;;;;9554543;31;20078;-84
2022/08/26 21:30:39;;;;;;;13.38;6.80;;;20.70;80.10;;;;;;9544334;31;20048;-82
2022/08/26 21:35:39;;;;;;;13.63;6.53;;;20.60;80.10;;;;;;9559067;31;20034;-82
2022/08/26 21:40:40;;;;;;;12.80;7.13;;;20.50;79.70;;;;;;9563332;31;20032;-82
2022/08/26 21:45:41;;;;;;;14.85;6.95;;;20.50;79.80;;;;;;9550448;31;20408;-81
2022/08/26 21:50:41;;;;;;;10.98;6.85;;;20.50;81.30;;;;;;9552716;31;20067;-82
2022/08/26 21:55:42;;;;;;;15.35;7.30;;;20.40;82.30;;;;;;9545068;31;20047;-81
2022/08/26 22:00:50;;;;;;;12.77;6.53;;;20.30;83.00;;;;;;9545522;31;20107;-81
2022/08/26 22:05:51;;;;;;;10.93;5.97;;;20.10;83.80;;;;;;9539778;31;20043;-81
2022/08/26 22:10:53;;;;;;;9.63;6.32;;;20.10;83.80;;;;;;9552530;31;20498;-83
2022/08/26 22:15:56;;;;;;;13.82;7.03;;;20.10;83.70;;;;;;9544693;31;20039;-82
2022/08/26 22:21:00;;;;;;;9.75;6.55;;;20.00;84.20;;;;;;9552072;31;20119;-84
2022/08/26 22:26:01;;;;;;;13.65;6.00;;;20.00;84.50;;;;;;9553373;31;20114;-81
2022/08/26 22:31:02;;;;;;;12.65;6.25;;;20.00;85.60;;;;;;9544764;31;20055;-81
2022/08/26 22:36:03;;;;;;;10.45;6.68;;;19.80;86.40;;;;;;9552719;31;20489;-84
2022/08/26 22:41:06;;;;;;;11.68;7.10;;;19.70;86.50;;;;;;9537123;31;20044;-82
2022/08/26 22:46:08;;;;;;;14.27;7.15;;;19.60;85.90;;;;;;9565405;31;20072;-82
2022/08/26 22:51:08;;;;;;;9.85;7.30;;;19.50;86.60;;;;;;9540624;31;20088;-85
2022/08/26 22:56:11;;;;;;;12.55;7.40;;;19.40;87.90;;;;;;9548423;31;20123;-84
2022/08/26 23:01:12;;;;;;;13.07;7.47;;;19.30;88.80;;;;;;9553032;31;20055;-82
2022/08/26 23:06:13;;;;;;;16.17;7.75;;;19.20;88.90;;;;;;9554254;31;20039;-82
2022/08/26 23:11:13;;;;;;;13.43;7.82;;;19.00;89.80;;;;;;9558857;31;20051;-81
2022/08/26 23:16:14;;;;;;;12.10;6.35;;;19.00;89.30;;;;;;9542037;31;20411;-82
2022/08/26 23:21:14;;;;;;;17.40;7.57;;;19.00;88.40;;;;;;9555721;30;20066;-82
2022/08/26 23:26:15;;;;;;;11.88;5.88;;;19.00;88.30;;;;;;9558193;31;20035;-81
2022/08/26 23:31:16;;;;;;;10.68;6.53;;;19.10;87.70;;;;;;9556602;31;20047;-84
2022/08/26 23:36:17;;;;;;;10.90;5.88;;;19.10;87.90;;;;;;9566924;31;20393;-82
2022/08/26 23:41:17;;;;;;;12.27;6.43;;;19.00;88.60;;;;;;9553007;30;20127;-81
2022/08/26 23:46:19;;;;;;;11.88;5.35;;;18.90;88.30;;;;;;9562171;30;20032;-82
2022/08/26 23:56:39;;;;;;;10.55;6.00;;;19.00;89.50;;;;;;9547431;31;20043;-83
